createdAt,value
2022-09-01T00:00:03.848Z,983.55
2022-09-01T00:01:02.919Z,983.58
2022-09-01T00:02:03.989Z,983.61
2022-09-01T00:03:02.917Z,983.44
2022-09-01T00:04:03.073Z,983.58
2022-09-01T00:05:03.137Z,983.55
2022-09-01T00:06:03.222Z,983.58
2022-09-01T00:07:03.271Z,983.53
2022-09-01T00:08:03.253Z,983.59
2022-09-01T00:09:03.723Z,983.53
2022-09-01T00:10:04.115Z,983.53
2022-09-01T00:11:02.952Z,983.65
2022-09-01T00:12:02.972Z,983.53
2022-09-01T00:13:02.932Z,983.56
2022-09-01T00:14:02.993Z,983.56
2022-09-01T00:15:02.930Z,983.51
2022-09-01T00:16:03.137Z,983.42
2022-09-01T00:17:03.094Z,983.42
2022-09-01T00:18:02.975Z,983.48
2022-09-01T00:19:03.081Z,983.45
2022-09-01T00:20:03.150Z,983.51
2022-09-01T00:21:03.105Z,983.48
2022-09-01T00:22:03.171Z,983.37
2022-09-01T00:23:03.253Z,983.42
2022-09-01T00:24:03.325Z,983.42
2022-09-01T00:25:03.326Z,983.29
2022-09-01T00:26:03.516Z,983.40
2022-09-01T00:27:03.442Z,983.35
2022-09-01T00:28:03.517Z,983.37
2022-09-01T00:29:03.591Z,983.40
2022-09-01T00:30:03.561Z,983.21
2022-09-01T00:31:03.800Z,983.35
2022-09-01T00:32:03.652Z,983.37
2022-09-01T00:33:03.641Z,983.37
2022-09-01T00:34:03.801Z,983.43
2022-09-01T00:35:03.834Z,983.40
2022-09-01T00:36:03.881Z,983.35
2022-09-01T00:37:02.977Z,983.35
2022-09-01T00:38:03.082Z,983.33
2022-09-01T00:39:03.297Z,983.35
2022-09-01T00:40:03.207Z,983.30
2022-09-01T00:41:03.174Z,983.35
2022-09-01T00:42:03.314Z,983.24
2022-09-01T00:43:03.421Z,983.41
2022-09-01T00:44:03.514Z,983.43
2022-09-01T00:45:03.511Z,983.27
2022-09-01T00:46:03.760Z,983.38
2022-09-01T00:47:03.723Z,983.30
2022-09-01T00:48:05.642Z,983.30
2022-09-01T00:49:04.301Z,983.30
2022-09-01T00:50:03.927Z,983.25
2022-09-01T00:51:03.878Z,983.31
2022-09-01T00:52:04.164Z,983.25
2022-09-01T00:53:02.956Z,983.22
2022-09-01T00:54:03.120Z,983.34
2022-09-01T00:55:03.094Z,983.22
2022-09-01T00:56:03.059Z,983.19
2022-09-01T00:57:03.163Z,983.17
2022-09-01T00:58:03.165Z,983.25
2022-09-01T00:59:03.335Z,983.22
2022-09-01T01:00:03.327Z,983.17
2022-09-01T01:01:03.347Z,983.05
2022-09-01T01:02:03.336Z,983.20
2022-09-01T01:03:03.576Z,983.11
2022-09-01T01:04:03.427Z,983.08
2022-09-01T01:05:03.503Z,983.05
2022-09-01T01:06:03.669Z,983.05
2022-09-01T01:07:03.624Z,983.11
2022-09-01T01:08:03.599Z,983.06
2022-09-01T01:09:03.676Z,983.06
2022-09-01T01:10:08.009Z,982.94
2022-09-01T01:11:02.991Z,983.11
2022-09-01T01:12:02.940Z,983.06
2022-09-01T01:13:03.105Z,983.12
2022-09-01T01:14:03.214Z,983.17
2022-09-01T01:15:03.348Z,982.92
2022-09-01T01:16:02.930Z,982.97
2022-09-01T01:17:03.273Z,982.92
2022-09-01T01:18:03.129Z,983.00
2022-09-01T01:19:03.116Z,982.97
2022-09-01T01:20:03.153Z,982.89
2022-09-01T01:21:03.163Z,983.00
2022-09-01T01:22:03.187Z,982.95
2022-09-01T01:23:03.386Z,983.03
2022-09-01T01:24:03.334Z,982.86
2022-09-01T01:25:03.290Z,983.01
2022-09-01T01:26:03.372Z,983.01
2022-09-01T01:27:03.516Z,982.92
2022-09-01T01:28:03.562Z,982.95
2022-09-01T01:29:03.103Z,982.92
2022-09-01T01:30:03.182Z,982.95
2022-09-01T01:31:03.321Z,982.92
2022-09-01T01:32:03.367Z,982.95
2022-09-01T01:33:03.778Z,983.04
2022-09-01T01:34:03.474Z,983.01
2022-09-01T01:35:03.582Z,983.12
2022-09-01T01:36:03.670Z,982.95
2022-09-01T01:37:03.786Z,983.15
2022-09-01T01:38:03.799Z,983.10
2022-09-01T01:39:03.759Z,983.10
2022-09-01T01:40:04.049Z,983.01
2022-09-01T01:41:03.880Z,983.10
2022-09-01T01:42:03.848Z,982.95
2022-09-01T01:43:02.890Z,983.01
2022-09-01T01:44:03.470Z,983.04
2022-09-01T01:45:03.016Z,982.96
2022-09-01T01:46:03.356Z,982.99
2022-09-01T01:47:03.086Z,983.01
2022-09-01T01:48:03.134Z,983.02
2022-09-01T01:49:03.201Z,982.90
2022-09-01T01:50:03.207Z,983.02
2022-09-01T01:51:03.241Z,983.02
2022-09-01T01:52:08.093Z,983.02
2022-09-01T01:53:11.754Z,983.02
2022-09-01T01:54:03.259Z,982.96
2022-09-01T01:55:05.614Z,983.02
2022-09-01T01:56:03.215Z,982.79
2022-09-01T01:57:03.244Z,982.99
2022-09-01T01:58:03.292Z,982.93
2022-09-01T01:59:08.179Z,983.05
2022-09-01T02:00:03.364Z,982.99
2022-09-01T02:01:03.638Z,982.93
2022-09-01T02:02:03.689Z,982.79
2022-09-01T02:03:03.644Z,982.74
2022-09-01T02:04:03.714Z,982.88
2022-09-01T02:05:03.700Z,982.82
2022-09-01T02:06:03.810Z,982.88
2022-09-01T02:07:03.810Z,982.74
2022-09-01T02:08:03.858Z,982.82
2022-09-01T02:09:02.908Z,982.79
2022-09-01T02:10:02.949Z,982.91
2022-09-01T02:11:03.026Z,982.75
2022-09-01T02:12:03.017Z,982.82
2022-09-01T02:13:03.090Z,982.91
2022-09-01T02:14:03.064Z,982.91
2022-09-01T02:15:03.178Z,982.97
2022-09-01T02:16:03.359Z,982.97
2022-09-01T02:17:03.654Z,982.86
2022-09-01T02:18:15.577Z,982.80
2022-09-01T02:19:03.453Z,982.86
2022-09-01T02:20:03.526Z,982.75
2022-09-01T02:21:03.686Z,982.83
2022-09-01T02:22:03.724Z,982.75
2022-09-01T02:23:03.786Z,982.80
2022-09-01T02:24:02.911Z,982.80
2022-09-01T02:25:03.035Z,982.80
2022-09-01T02:26:17.640Z,982.92
2022-09-01T02:27:03.097Z,982.83
2022-09-01T02:28:03.251Z,982.64
2022-09-01T02:29:03.263Z,982.83
2022-09-01T02:30:03.320Z,982.67
2022-09-01T02:31:03.788Z,982.72
2022-09-01T02:32:03.600Z,982.67
2022-09-01T02:33:03.795Z,982.58
2022-09-01T02:34:03.690Z,982.64
2022-09-01T02:35:03.826Z,982.73
2022-09-01T02:36:03.845Z,982.78
2022-09-01T02:37:02.962Z,982.70
2022-09-01T02:38:02.968Z,982.78
2022-09-01T02:39:02.951Z,982.78
2022-09-01T02:40:02.995Z,982.64
2022-09-01T02:41:02.915Z,982.62
2022-09-01T02:42:03.589Z,982.62
2022-09-01T02:43:03.593Z,982.64
2022-09-01T02:44:03.689Z,982.59
2022-09-01T02:45:03.938Z,982.64
2022-09-01T02:46:04.046Z,982.62
2022-09-01T02:47:03.843Z,982.67
2022-09-01T02:48:03.786Z,982.56
2022-09-01T02:49:02.952Z,982.56
2022-09-01T02:50:02.916Z,982.68
2022-09-01T02:51:02.956Z,982.48
2022-09-01T02:52:02.915Z,982.56
2022-09-01T02:53:04.366Z,982.56
2022-09-01T02:54:02.907Z,982.65
2022-09-01T02:55:02.962Z,982.59
2022-09-01T02:56:02.965Z,982.62
2022-09-01T02:57:03.075Z,982.45
2022-09-01T02:58:03.039Z,982.54
2022-09-01T02:59:03.135Z,982.48
2022-09-01T03:00:03.239Z,982.45
2022-09-01T03:01:03.370Z,982.48
2022-09-01T03:02:03.393Z,982.51
2022-09-01T03:03:03.363Z,982.43
2022-09-01T03:04:03.519Z,982.51
2022-09-01T03:05:03.816Z,982.60
2022-09-01T03:06:03.768Z,982.45
2022-09-01T03:07:03.807Z,982.48
2022-09-01T03:08:02.974Z,982.63
2022-09-01T03:09:02.943Z,982.51
2022-09-01T03:10:03.073Z,982.49
2022-09-01T03:11:02.926Z,982.66
2022-09-01T03:12:03.128Z,982.66
2022-09-01T03:13:03.171Z,982.49
2022-09-01T03:14:03.242Z,982.54
2022-09-01T03:15:03.172Z,982.51
2022-09-01T03:16:03.289Z,982.46
2022-09-01T03:17:03.314Z,982.51
2022-09-01T03:18:03.277Z,982.51
2022-09-01T03:19:03.436Z,982.54
2022-09-01T03:20:03.389Z,982.51
2022-09-01T03:21:03.368Z,982.31
2022-09-01T03:22:03.512Z,982.49
2022-09-01T03:23:03.672Z,982.51
2022-09-01T03:24:03.748Z,982.49
2022-09-01T03:25:03.809Z,982.46
2022-09-01T03:26:03.872Z,982.57
2022-09-01T03:27:03.842Z,982.63
2022-09-01T03:28:03.932Z,982.49
2022-09-01T03:29:02.890Z,982.46
2022-09-01T03:30:02.974Z,982.57
2022-09-01T03:31:02.910Z,982.55
2022-09-01T03:32:03.111Z,982.43
2022-09-01T03:33:02.974Z,982.55
2022-09-01T03:34:03.081Z,982.57
2022-09-01T03:35:03.137Z,982.66
2022-09-01T03:36:03.304Z,982.63
2022-09-01T03:37:03.260Z,982.61
2022-09-01T03:38:03.317Z,982.80
2022-09-01T03:39:03.453Z,982.55
2022-09-01T03:40:03.468Z,982.61
2022-09-01T03:41:03.462Z,982.69
2022-09-01T03:42:03.595Z,982.75
2022-09-01T03:43:03.602Z,982.72
2022-09-01T03:44:03.664Z,982.69
2022-09-01T03:45:03.742Z,982.55
2022-09-01T03:46:03.979Z,982.52
2022-09-01T03:47:05.038Z,982.58
2022-09-01T03:48:03.873Z,982.64
2022-09-01T03:49:02.928Z,982.64
2022-09-01T03:50:02.938Z,982.83
2022-09-01T03:51:03.338Z,982.75
2022-09-01T03:52:03.024Z,982.80
2022-09-01T03:53:03.080Z,982.67
2022-09-01T03:54:03.140Z,982.78
2022-09-01T03:55:03.145Z,982.61
2022-09-01T03:56:03.006Z,982.78
2022-09-01T03:57:03.446Z,982.70
2022-09-01T03:58:02.966Z,982.70
2022-09-01T03:59:03.548Z,982.73
2022-09-01T04:00:03.165Z,982.65
2022-09-01T04:01:03.322Z,982.67
2022-09-01T04:02:03.285Z,982.78
2022-09-01T04:03:03.121Z,982.70
2022-09-01T04:04:03.159Z,982.70
2022-09-01T04:05:08.652Z,982.84
2022-09-01T04:06:03.166Z,982.70
2022-09-01T04:07:03.162Z,982.84
2022-09-01T04:08:03.156Z,982.81
2022-09-01T04:09:03.878Z,982.78
2022-09-01T04:10:03.349Z,982.93
2022-09-01T04:11:03.326Z,982.84
2022-09-01T04:12:04.932Z,982.78
2022-09-01T04:13:03.300Z,982.81
2022-09-01T04:14:03.427Z,982.74
2022-09-01T04:15:03.297Z,982.84
2022-09-01T04:16:03.378Z,982.93
2022-09-01T04:17:03.325Z,982.71
2022-09-01T04:18:03.485Z,982.71
2022-09-01T04:19:03.500Z,982.87
2022-09-01T04:20:03.587Z,982.93
2022-09-01T04:21:02.882Z,982.71
2022-09-01T04:22:02.982Z,982.87
2022-09-01T04:23:03.151Z,982.96
2022-09-01T04:24:03.045Z,982.81
2022-09-01T04:25:03.284Z,982.87
2022-09-01T04:26:03.839Z,982.93
2022-09-01T04:27:03.864Z,982.68
2022-09-01T04:28:02.949Z,982.82
2022-09-01T04:29:02.902Z,982.74
2022-09-01T04:30:02.997Z,982.82
2022-09-01T04:31:02.932Z,982.82
2022-09-01T04:32:03.771Z,982.99
2022-09-01T04:33:03.066Z,982.87
2022-09-01T04:34:03.036Z,982.87
2022-09-01T04:35:03.088Z,983.02
2022-09-01T04:36:02.953Z,982.85
2022-09-01T04:37:02.996Z,982.85
2022-09-01T04:38:03.118Z,982.82
2022-09-01T04:39:03.056Z,982.93
2022-09-01T04:40:03.200Z,982.87
2022-09-01T04:41:03.170Z,982.85
2022-09-01T04:42:03.082Z,982.87
2022-09-01T04:43:03.184Z,982.82
2022-09-01T04:44:03.090Z,982.74
2022-09-01T04:45:11.056Z,982.82
2022-09-01T04:46:03.129Z,982.79
2022-09-01T04:47:03.239Z,982.93
2022-09-01T04:48:03.060Z,982.74
2022-09-01T04:49:02.938Z,982.68
2022-09-01T04:50:03.030Z,982.84
2022-09-01T04:51:03.544Z,982.81
2022-09-01T04:52:03.637Z,982.87
2022-09-01T04:53:03.506Z,982.81
2022-09-01T04:54:03.466Z,982.79
2022-09-01T04:55:03.609Z,982.74
2022-09-01T04:56:03.619Z,982.90
2022-09-01T04:57:03.594Z,982.90
2022-09-01T04:58:10.450Z,982.95
2022-09-01T04:59:03.573Z,982.84
2022-09-01T05:00:04.586Z,982.73
2022-09-01T05:01:03.707Z,982.73
2022-09-01T05:02:03.708Z,982.84
2022-09-01T05:03:03.799Z,982.67
2022-09-01T05:04:04.456Z,982.65
2022-09-01T05:05:03.782Z,982.81
2022-09-01T05:06:03.946Z,982.86
2022-09-01T05:07:03.870Z,982.61
2022-09-01T05:08:02.991Z,982.58
2022-09-01T05:09:02.950Z,982.61
2022-09-01T05:10:03.456Z,982.67
2022-09-01T05:11:03.566Z,982.70
2022-09-01T05:12:03.590Z,982.70
2022-09-01T05:13:03.672Z,982.75
2022-09-01T05:14:03.785Z,982.72
2022-09-01T05:15:03.870Z,982.75
2022-09-01T05:16:03.036Z,982.66
2022-09-01T05:17:03.119Z,982.69
2022-09-01T05:18:03.193Z,982.69
2022-09-01T05:19:03.287Z,982.72
2022-09-01T05:20:03.144Z,982.71
2022-09-01T05:21:03.147Z,982.82
2022-09-01T05:22:03.319Z,982.74
2022-09-01T05:23:03.330Z,982.81
2022-09-01T05:24:03.288Z,982.70
2022-09-01T05:25:03.412Z,982.78
2022-09-01T05:26:04.233Z,982.89
2022-09-01T05:27:03.550Z,982.91
2022-09-01T05:28:03.609Z,982.97
2022-09-01T05:29:03.759Z,982.91
2022-09-01T05:30:03.693Z,982.85
2022-09-01T05:31:03.861Z,982.79
2022-09-01T05:32:03.685Z,982.88
2022-09-01T05:33:03.736Z,982.90
2022-09-01T05:34:03.816Z,982.90
2022-09-01T05:35:03.913Z,983.02
2022-09-01T05:36:03.938Z,982.96
2022-09-01T05:37:02.876Z,983.04
2022-09-01T05:38:03.102Z,982.98
2022-09-01T05:39:03.002Z,983.16
2022-09-01T05:40:03.212Z,983.10
2022-09-01T05:41:03.131Z,983.04
2022-09-01T05:42:03.313Z,983.12
2022-09-01T05:43:03.270Z,983.12
2022-09-01T05:44:03.285Z,983.21
2022-09-01T05:45:03.309Z,983.24
2022-09-01T05:46:08.287Z,983.21
2022-09-01T05:47:03.708Z,983.18
2022-09-01T05:48:03.573Z,983.21
2022-09-01T05:49:03.687Z,983.24
2022-09-01T05:50:03.731Z,983.27
2022-09-01T05:51:03.735Z,983.29
2022-09-01T05:52:04.000Z,983.37
2022-09-01T05:53:03.805Z,983.27
2022-09-01T05:54:03.710Z,983.37
2022-09-01T05:55:03.604Z,983.40
2022-09-01T05:56:02.975Z,983.26
2022-09-01T05:57:34.505Z,983.35
2022-09-01T05:58:03.106Z,983.21
2022-09-01T05:59:27.238Z,983.32
2022-09-01T06:00:03.468Z,983.35
2022-09-01T06:01:03.365Z,983.32
2022-09-01T06:02:03.562Z,983.36
2022-09-01T06:03:03.511Z,983.42
2022-09-01T06:04:03.190Z,983.29
2022-09-01T06:05:03.353Z,983.36
2022-09-01T06:06:03.319Z,983.45
2022-09-01T06:07:09.568Z,983.44
2022-09-01T06:08:03.409Z,983.41
2022-09-01T06:09:03.379Z,983.44
2022-09-01T06:10:03.283Z,983.33
2022-09-01T06:11:03.376Z,983.52
2022-09-01T06:12:03.333Z,983.52
2022-09-01T06:13:03.409Z,983.43
2022-09-01T06:14:03.705Z,983.27
2022-09-01T06:15:03.675Z,983.40
2022-09-01T06:16:03.686Z,983.39
2022-09-01T06:17:03.784Z,983.42
2022-09-01T06:18:03.711Z,983.36
2022-09-01T06:19:03.795Z,983.35
2022-09-01T06:20:04.472Z,983.38
2022-09-01T06:21:03.822Z,983.37
2022-09-01T06:22:03.775Z,983.35
2022-09-01T06:23:03.824Z,983.39
2022-09-01T06:24:03.880Z,983.39
2022-09-01T06:25:03.612Z,983.45
2022-09-01T06:26:03.094Z,983.47
2022-09-01T06:27:03.141Z,983.44
2022-09-01T06:28:03.169Z,983.58
2022-09-01T06:29:03.198Z,983.55
2022-09-01T06:30:03.149Z,983.61
2022-09-01T06:31:03.339Z,983.61
2022-09-01T06:32:03.239Z,983.67
2022-09-01T06:33:03.231Z,983.81
2022-09-01T06:34:03.094Z,983.72
2022-09-01T06:35:05.595Z,983.89
2022-09-01T06:36:03.239Z,983.86
2022-09-01T06:37:03.396Z,983.83
2022-09-01T06:38:03.381Z,983.82
2022-09-01T06:39:03.430Z,983.88
2022-09-01T06:40:03.791Z,983.91
2022-09-01T06:41:03.589Z,983.88
2022-09-01T06:42:08.040Z,983.87
2022-09-01T06:43:03.578Z,983.93
2022-09-01T06:44:03.640Z,983.99
2022-09-01T06:45:03.629Z,984.02
2022-09-01T06:46:03.730Z,984.01
2022-09-01T06:47:03.828Z,984.07
2022-09-01T06:48:03.773Z,984.01
2022-09-01T06:49:03.838Z,984.16
2022-09-01T06:50:02.974Z,984.12
2022-09-01T06:51:21.555Z,984.18
2022-09-01T06:52:03.117Z,984.24
2022-09-01T06:54:03.107Z,984.23
2022-09-01T06:55:08.329Z,984.32
2022-09-01T06:56:03.293Z,984.28
2022-09-01T06:58:05.943Z,984.28
2022-09-01T06:58:06.497Z,984.36
2022-09-01T06:59:03.191Z,984.42
2022-09-01T07:00:03.419Z,984.39
2022-09-01T07:01:03.588Z,984.42
2022-09-01T07:02:06.274Z,984.41
2022-09-01T07:03:03.287Z,984.53
2022-09-01T07:04:03.269Z,984.52
2022-09-01T07:05:03.363Z,984.61
2022-09-01T07:06:03.539Z,984.69
2022-09-01T07:08:06.405Z,984.69
2022-09-01T07:09:47.446Z,984.75
2022-09-01T07:12:38.155Z,984.82
2022-09-01T07:13:08.355Z,984.78
2022-09-01T07:14:16.987Z,984.87
2022-09-01T07:16:30.317Z,984.78
2022-09-01T07:16:41.790Z,984.98
2022-09-01T07:17:24.347Z,984.89
2022-09-01T07:18:02.984Z,985.12
2022-09-01T07:19:02.939Z,984.95
2022-09-01T07:22:08.740Z,985.30
2022-09-01T07:23:04.818Z,985.30
2022-09-01T07:24:11.696Z,985.35
2022-09-01T07:26:04.693Z,985.27
2022-09-01T07:27:10.819Z,985.24
2022-09-01T07:28:03.380Z,985.35
2022-09-01T07:29:06.466Z,985.27
2022-09-01T07:30:03.274Z,985.24
2022-09-01T07:32:47.393Z,985.30
2022-09-01T07:33:44.667Z,985.27
2022-09-01T07:34:40.208Z,985.35
2022-09-01T07:35:04.941Z,985.38
2022-09-01T07:36:29.984Z,985.35
2022-09-01T07:38:46.797Z,985.53
2022-09-01T07:38:49.901Z,985.41
2022-09-01T07:39:49.467Z,985.53
2022-09-01T07:42:58.177Z,984.58
2022-09-01T07:44:03.651Z,985.50
2022-09-01T07:45:28.427Z,985.59
2022-09-01T07:46:37.774Z,985.42
2022-09-01T07:47:52.719Z,985.39
2022-09-01T07:48:04.255Z,985.53
2022-09-01T07:49:33.962Z,985.47
2022-09-01T07:50:41.643Z,985.35
2022-09-01T07:51:37.394Z,985.30
2022-09-01T07:52:03.111Z,985.35
2022-09-01T07:53:03.085Z,985.40
2022-09-01T07:54:03.147Z,985.49
2022-09-01T07:55:03.227Z,985.52
2022-09-01T07:56:03.137Z,985.46
2022-09-01T07:57:03.126Z,985.45
2022-09-01T07:58:03.245Z,985.40
2022-09-01T07:59:03.229Z,985.54
2022-09-01T08:00:03.289Z,985.54
2022-09-01T08:01:03.320Z,985.62
2022-09-01T08:02:03.468Z,985.50
2022-09-01T08:03:03.393Z,985.53
2022-09-01T08:04:03.386Z,985.59
2022-09-01T08:05:03.496Z,985.59
2022-09-01T08:06:03.420Z,985.53
2022-09-01T08:07:03.569Z,985.67
2022-09-01T08:08:03.546Z,985.76
2022-09-01T08:09:03.672Z,985.82
2022-09-01T08:10:03.521Z,985.73
2022-09-01T08:11:05.393Z,985.61
2022-09-01T08:12:03.847Z,985.64
2022-09-01T08:13:04.780Z,985.58
2022-09-01T08:14:03.757Z,985.70
2022-09-01T08:16:06.262Z,985.73
2022-09-01T08:16:15.905Z,985.67
2022-09-01T08:17:32.929Z,985.72
2022-09-01T08:18:03.054Z,985.66
2022-09-01T08:19:03.161Z,985.61
2022-09-01T08:20:03.568Z,985.75
2022-09-01T08:21:02.962Z,985.60
2022-09-01T08:22:03.094Z,985.69
2022-09-01T08:23:03.107Z,985.72
2022-09-01T08:24:03.162Z,985.72
2022-09-01T08:25:03.153Z,985.69
2022-09-01T08:26:03.150Z,985.71
2022-09-01T08:27:03.169Z,985.71
2022-09-01T08:28:03.343Z,985.77
2022-09-01T08:29:03.289Z,985.83
2022-09-01T08:30:03.298Z,985.77
2022-09-01T08:31:11.292Z,985.74
2022-09-01T08:32:03.472Z,985.77
2022-09-01T08:33:11.133Z,985.74
2022-09-01T08:34:03.459Z,985.70
2022-09-01T08:35:03.872Z,985.94
2022-09-01T08:36:03.985Z,985.85
2022-09-01T08:37:03.583Z,985.73
2022-09-01T08:38:03.625Z,985.88
2022-09-01T08:39:03.713Z,985.76
2022-09-01T08:40:04.505Z,985.82
2022-09-01T08:41:03.935Z,985.87
2022-09-01T08:42:03.923Z,985.79
2022-09-01T08:43:02.988Z,985.70
2022-09-01T08:44:03.891Z,985.81
2022-09-01T08:45:02.947Z,985.70
2022-09-01T08:46:03.089Z,985.84
2022-09-01T08:47:02.946Z,985.75
2022-09-01T08:49:24.555Z,985.78
2022-09-01T08:49:26.711Z,985.84
2022-09-01T08:50:06.596Z,985.72
2022-09-01T08:51:03.482Z,985.72
2022-09-01T08:52:03.256Z,985.69
2022-09-01T08:53:09.944Z,985.60
2022-09-01T08:54:03.469Z,985.66
2022-09-01T08:55:03.896Z,985.77
2022-09-01T08:56:03.504Z,985.60
2022-09-01T08:57:03.574Z,985.74
2022-09-01T08:58:03.594Z,985.71
2022-09-01T08:59:03.751Z,985.80
2022-09-01T09:00:03.713Z,985.77
2022-09-01T09:01:03.825Z,985.77
2022-09-01T09:02:03.065Z,985.86
2022-09-01T09:03:04.063Z,985.92
2022-09-01T09:04:03.030Z,985.74
2022-09-01T09:05:16.165Z,985.92
2022-09-01T09:06:03.074Z,985.97
2022-09-01T09:07:03.146Z,985.95
2022-09-01T09:08:08.470Z,985.86
2022-09-01T09:09:03.132Z,985.95
2022-09-01T09:10:03.249Z,985.95
2022-09-01T09:11:03.205Z,985.98
2022-09-01T09:12:04.457Z,985.95
2022-09-01T09:13:03.383Z,986.00
2022-09-01T09:14:03.432Z,985.95
2022-09-01T09:15:03.458Z,985.95
2022-09-01T09:16:09.229Z,986.00
2022-09-01T09:17:03.766Z,985.98
2022-09-01T09:18:19.937Z,986.00
2022-09-01T09:19:04.561Z,985.98
2022-09-01T09:20:03.612Z,986.06
2022-09-01T09:21:03.792Z,986.00
2022-09-01T09:22:03.721Z,985.95
2022-09-01T09:23:04.425Z,985.94
2022-09-01T09:24:02.983Z,986.03
2022-09-01T09:25:02.970Z,986.03
2022-09-01T09:26:03.954Z,986.12
2022-09-01T09:27:04.491Z,985.94
2022-09-01T09:28:02.945Z,985.94
2022-09-01T09:29:02.993Z,985.97
2022-09-01T09:30:11.273Z,986.00
2022-09-01T09:31:03.441Z,986.00
2022-09-01T09:32:03.321Z,986.03
2022-09-01T09:33:51.557Z,986.11
2022-09-01T09:34:03.364Z,985.91
2022-09-01T09:35:03.018Z,986.03
2022-09-01T09:36:03.038Z,986.00
2022-09-01T09:37:02.968Z,985.97
2022-09-01T09:38:03.185Z,986.08
2022-09-01T09:39:03.897Z,986.02
2022-09-01T09:40:03.925Z,986.14
2022-09-01T09:41:25.551Z,986.08
2022-09-01T09:42:06.321Z,986.14
2022-09-01T09:43:03.289Z,986.17
2022-09-01T09:44:03.360Z,986.08
2022-09-01T09:45:03.366Z,986.20
2022-09-01T09:46:03.650Z,986.14
2022-09-01T09:47:17.370Z,986.11
2022-09-01T09:48:03.575Z,986.31
2022-09-01T09:49:03.637Z,986.17
2022-09-01T09:50:05.756Z,986.25
2022-09-01T09:51:03.835Z,986.05
2022-09-01T09:52:03.855Z,986.22
2022-09-01T09:53:02.894Z,986.11
2022-09-01T09:54:03.075Z,986.16
2022-09-01T09:55:03.086Z,986.22
2022-09-01T09:56:03.058Z,986.28
2022-09-01T09:57:05.104Z,986.28
2022-09-01T09:58:03.231Z,986.22
2022-09-01T09:59:03.336Z,986.34
2022-09-01T10:00:03.349Z,986.40
2022-09-01T10:01:05.668Z,986.19
2022-09-01T10:02:03.519Z,986.31
2022-09-01T10:03:10.066Z,986.37
2022-09-01T10:04:03.661Z,986.43
2022-09-01T10:05:03.577Z,986.22
2022-09-01T10:06:03.627Z,986.45
2022-09-01T10:07:03.715Z,986.42
2022-09-01T10:08:05.504Z,986.39
2022-09-01T10:09:03.824Z,986.34
2022-09-01T10:10:04.584Z,986.42
2022-09-01T10:11:03.000Z,986.48
2022-09-01T10:12:03.120Z,986.42
2022-09-01T10:13:03.264Z,986.37
2022-09-01T10:14:03.185Z,986.22
2022-09-01T10:15:12.506Z,986.37
2022-09-01T10:16:07.893Z,986.25
2022-09-01T10:17:06.315Z,986.43
2022-09-01T10:18:29.479Z,986.43
2022-09-01T10:19:04.732Z,986.32
2022-09-01T10:20:03.424Z,986.40
2022-09-01T10:21:04.681Z,986.32
2022-09-01T10:22:03.501Z,986.29
2022-09-01T10:23:04.186Z,986.26
2022-09-01T10:24:22.236Z,986.52
2022-09-01T10:25:04.003Z,986.29
2022-09-01T10:26:09.277Z,986.32
2022-09-01T10:27:03.950Z,986.44
2022-09-01T10:28:03.653Z,986.35
2022-09-01T10:29:03.578Z,986.35
2022-09-01T10:30:20.670Z,986.40
2022-09-01T10:31:04.158Z,986.29
2022-09-01T10:32:37.170Z,986.29
2022-09-01T10:33:19.430Z,986.32
2022-09-01T10:34:05.911Z,986.49
2022-09-01T10:35:03.089Z,986.32
2022-09-01T10:36:08.543Z,986.57
2022-09-01T10:37:03.316Z,986.46
2022-09-01T10:38:03.344Z,986.49
2022-09-01T10:39:09.041Z,986.46
2022-09-01T10:40:03.505Z,986.34
2022-09-01T10:41:03.502Z,986.40
2022-09-01T10:42:03.410Z,986.52
2022-09-01T10:43:06.110Z,986.54
2022-09-01T10:44:03.531Z,986.34
2022-09-01T10:45:03.611Z,986.48
2022-09-01T10:46:09.383Z,986.31
2022-09-01T10:47:06.551Z,986.45
2022-09-01T10:48:03.684Z,986.48
2022-09-01T10:49:04.784Z,986.50
2022-09-01T10:50:11.134Z,986.47
2022-09-01T10:51:03.751Z,986.58
2022-09-01T10:52:13.923Z,986.56
2022-09-01T10:53:05.366Z,986.64
2022-09-01T10:54:03.802Z,986.53
2022-09-01T10:55:03.849Z,986.58
2022-09-01T10:56:23.774Z,986.58
2022-09-01T10:57:12.095Z,986.44
2022-09-01T10:59:31.029Z,986.56
2022-09-01T10:59:37.593Z,986.56
2022-09-01T11:00:04.678Z,986.69
2022-09-01T11:01:13.302Z,986.60
2022-09-01T11:02:34.614Z,986.69
2022-09-01T11:03:30.410Z,986.56
2022-09-01T11:04:04.587Z,986.53
2022-09-01T11:05:03.133Z,986.41
2022-09-01T11:06:13.613Z,986.41
2022-09-01T11:07:15.228Z,986.41
2022-09-01T11:08:15.802Z,986.38
2022-09-01T11:09:03.355Z,986.32
2022-09-01T11:10:12.012Z,986.44
2022-09-01T11:11:03.488Z,986.35
2022-09-01T11:12:03.920Z,986.24
2022-09-01T11:13:04.679Z,986.23
2022-09-01T11:14:03.840Z,986.23
2022-09-01T11:15:03.778Z,986.17
2022-09-01T11:16:03.835Z,986.23
2022-09-01T11:17:03.146Z,986.09
2022-09-01T11:18:03.041Z,986.23
2022-09-01T11:19:03.139Z,986.23
2022-09-01T11:20:04.092Z,986.35
2022-09-01T11:21:03.284Z,986.32
2022-09-01T11:22:03.232Z,986.27
2022-09-01T11:23:04.010Z,986.15
2022-09-01T11:24:05.447Z,986.32
2022-09-01T11:25:13.063Z,986.24
2022-09-01T11:26:20.185Z,986.32
2022-09-01T11:27:03.635Z,986.29
2022-09-01T11:28:03.609Z,986.35
2022-09-01T11:29:03.861Z,986.09
2022-09-01T11:30:03.748Z,986.15
2022-09-01T11:31:03.706Z,986.32
2022-09-01T11:32:03.960Z,986.12
2022-09-01T11:33:04.191Z,986.27
2022-09-01T11:34:02.916Z,986.27
2022-09-01T11:35:03.118Z,986.27
2022-09-01T11:36:03.831Z,986.30
2022-09-01T11:37:04.070Z,986.27
2022-09-01T11:38:03.034Z,986.19
2022-09-01T11:39:03.323Z,986.33
2022-09-01T11:40:03.441Z,986.27
2022-09-01T11:41:04.166Z,986.19
2022-09-01T11:42:04.882Z,986.16
2022-09-01T11:43:03.617Z,986.19
2022-09-01T11:44:03.388Z,986.37
2022-09-01T11:45:04.087Z,986.31
2022-09-01T11:46:03.693Z,986.16
2022-09-01T11:47:03.540Z,986.19
2022-09-01T11:48:03.424Z,986.31
2022-09-01T11:49:03.520Z,986.22
2022-09-01T11:50:03.485Z,986.20
2022-09-01T11:51:03.539Z,986.28
2022-09-01T11:52:03.562Z,986.28
2022-09-01T11:53:05.975Z,986.32
2022-09-01T11:54:03.615Z,986.17
2022-09-01T11:55:03.744Z,986.35
2022-09-01T11:56:03.746Z,986.35
2022-09-01T11:57:03.687Z,986.23
2022-09-01T11:58:03.763Z,986.38
2022-09-01T11:59:03.709Z,986.32
2022-09-01T12:00:03.830Z,986.26
2022-09-01T12:01:03.799Z,986.21
2022-09-01T12:02:04.027Z,986.30
2022-09-01T12:03:03.268Z,986.21
2022-09-01T12:04:03.917Z,986.27
2022-09-01T12:05:03.841Z,986.27
2022-09-01T12:06:03.005Z,986.12
2022-09-01T12:07:02.912Z,986.15
2022-09-01T12:08:03.081Z,986.24
2022-09-01T12:09:03.080Z,986.15
2022-09-01T12:10:03.400Z,986.21
2022-09-01T12:11:03.443Z,986.18
2022-09-01T12:12:03.478Z,986.09
2022-09-01T12:13:03.480Z,986.03
2022-09-01T12:14:10.469Z,986.15
2022-09-01T12:15:06.910Z,986.18
2022-09-01T12:16:19.278Z,986.09
2022-09-01T12:17:03.730Z,985.94
2022-09-01T12:18:03.610Z,986.02
2022-09-01T12:19:03.674Z,986.14
2022-09-01T12:20:03.933Z,986.05
2022-09-01T12:21:03.836Z,986.08
2022-09-01T12:22:03.913Z,986.17
2022-09-01T12:23:03.074Z,986.11
2022-09-01T12:24:03.012Z,986.05
2022-09-01T12:25:03.370Z,986.14
2022-09-01T12:26:03.357Z,986.16
2022-09-01T12:27:03.282Z,985.99
2022-09-01T12:28:03.209Z,986.05
2022-09-01T12:29:03.369Z,986.22
2022-09-01T12:30:03.400Z,986.08
2022-09-01T12:31:08.634Z,986.17
2022-09-01T12:32:03.476Z,986.02
2022-09-01T12:33:25.095Z,986.13
2022-09-01T12:34:03.344Z,986.02
2022-09-01T12:35:11.762Z,986.04
2022-09-01T12:36:03.530Z,986.13
2022-09-01T12:37:03.479Z,986.04
2022-09-01T12:38:09.053Z,985.92
2022-09-01T12:39:05.159Z,986.10